Time;durP1;ratioP1;P1;durP2;ratioP2;P2;SDS_P1;SDS_P2;PMS_P1;PMS_P2;Temp;Humidity;BMP_temperature;BMP_pressure;BME280_temperature;BME280_humidity;BME280_pressure;Samples;Min_cycle;Max_cycle;Signal;HPM_P1;HPM_P2
2021/04/16 00:00:22;;;;;;;3.08;2.88;;;;;;;-2.96;85.23;93547.31;2106813;28;20085;-84
2021/04/16 00:01:22;;;;;;;2.83;2.47;;;;;;;-2.99;84.84;93540.09;2101731;28;20028;-81
2021/04/16 00:02:23;;;;;;;2.83;2.63;;;;;;;-3.00;84.32;93538.56;2090035;28;20839;-82
2021/04/16 00:03:24;;;;;;;2.70;2.50;;;;;;;-3.01;84.79;93536.28;2098449;28;20021;-85
2021/04/16 00:04:25;;;;;;;3.00;2.80;;;;;;;-3.02;84.55;93537.38;2098409;28;20051;-83
2021/04/16 00:05:25;;;;;;;2.95;2.75;;;;;;;-2.93;84.29;93545.94;2106911;28;20418;-84
2021/04/16 00:06:26;;;;;;;2.58;2.38;;;;;;;-2.87;85.51;93536.78;2110427;28;20071;-81
2021/04/16 00:07:27;;;;;;;4.32;3.33;;;;;;;-2.88;85.63;93536.03;2110016;28;20047;-84
2021/04/16 00:08:31;;;;;;;3.13;2.90;;;;;;;-2.92;84.77;93532.53;2111040;28;20111;-80
2021/04/16 00:09:31;;;;;;;3.30;2.72;;;;;;;-2.95;84.71;93533.16;2098564;28;20074;-83
2021/04/16 00:10:37;;;;;;;3.00;2.80;;;;;;;-3.00;84.52;93532.59;2094470;28;20504;-84
2021/04/16 00:11:38;;;;;;;2.63;2.42;;;;;;;-3.00;84.36;93530.72;2108163;27;20125;-81
2021/04/16 00:12:38;;;;;;;2.50;2.28;;;;;;;-3.03;84.65;93528.75;2101150;28;20443;-83
2021/04/16 00:13:39;;;;;;;3.22;2.83;;;;;;;-2.97;85.14;93529.34;2092840;28;20059;-82
2021/04/16 00:14:39;;;;;;;3.35;2.55;;;;;;;-3.01;84.58;93529.22;2103833;28;20050;-83
2021/04/16 00:15:41;;;;;;;2.80;2.47;;;;;;;-3.06;84.40;93526.78;2100779;28;20024;-84
2021/04/16 00:16:41;;;;;;;2.50;2.28;;;;;;;-3.05;84.61;93526.47;2100698;28;20020;-84
2021/04/16 00:17:42;;;;;;;3.17;2.90;;;;;;;-3.00;84.28;93522.88;2104373;28;20426;-82
2021/04/16 00:18:43;;;;;;;2.63;2.42;;;;;;;-2.96;84.01;93525.63;2112882;28;20031;-84
2021/04/16 00:19:43;;;;;;;3.00;2.80;;;;;;;-2.95;84.01;93535.00;2115230;28;20027;-84
2021/04/16 00:20:44;;;;;;;3.35;2.60;;;;;;;-2.97;83.94;93526.72;2106568;28;20366;-84
2021/04/16 00:21:44;;;;;;;3.03;2.70;;;;;;;-3.01;84.12;93526.59;2092024;28;20060;-84
2021/04/16 00:22:45;;;;;;;2.78;2.58;;;;;;;-3.04;84.36;93525.38;2094008;28;20051;-84
2021/04/16 00:23:45;;;;;;;3.15;2.85;;;;;;;-3.07;84.38;93528.66;2098368;28;20705;-85
2021/04/16 00:24:46;;;;;;;2.70;2.45;;;;;;;-3.10;84.88;93523.28;2098213;28;20095;-84
2021/04/16 00:25:47;;;;;;;2.80;2.53;;;;;;;-3.16;84.42;93522.72;2104736;28;20031;-83
2021/04/16 00:26:47;;;;;;;2.55;2.35;;;;;;;-3.15;84.19;93524.25;2098115;28;20035;-82
2021/04/16 00:27:48;;;;;;;3.20;2.20;;;;;;;-3.17;84.42;93525.63;2099175;28;20518;-83
2021/04/16 00:28:49;;;;;;;4.07;2.60;;;;;;;-3.16;84.69;93527.16;2105062;28;20028;-83
2021/04/16 00:29:49;;;;;;;2.67;2.47;;;;;;;-3.19;84.64;93522.59;2096708;28;20458;-83
2021/04/16 00:30:56;;;;;;;4.40;2.72;;;;;;;-3.21;84.97;93520.28;2098091;28;20077;-83
2021/04/16 00:31:56;;;;;;;3.50;2.53;;;;;;;-3.24;84.60;93518.31;2099332;28;20032;-81
2021/04/16 00:33:01;;;;;;;2.70;2.50;;;;;;;-3.27;84.79;93524.16;2105417;28;20458;-81
2021/04/16 00:34:03;;;;;;;2.60;2.40;;;;;;;-3.23;84.89;93519.84;2098253;28;20152;-81
2021/04/16 00:35:06;;;;;;;3.20;2.90;;;;;;;-3.25;85.37;93513.38;2105804;28;20500;-81
2021/04/16 00:36:08;;;;;;;2.70;2.50;;;;;;;-3.20;84.87;93513.22;2098259;28;20508;-82
2021/04/16 00:37:08;;;;;;;2.78;2.58;;;;;;;-3.15;84.82;93513.03;2096967;28;20450;-82
2021/04/16 00:38:11;;;;;;;2.95;2.65;;;;;;;-3.12;84.44;93518.34;2098199;28;20434;-81
2021/04/16 00:39:12;;;;;;;2.75;2.53;;;;;;;-3.11;84.81;93513.91;2106707;28;20028;-82
2021/04/16 00:40:17;;;;;;;2.72;2.53;;;;;;;-3.14;84.78;93512.69;2106274;28;21074;-82
2021/04/16 00:41:22;;;;;;;2.80;2.40;;;;;;;-3.17;84.78;93515.94;2100839;28;20028;-81
2021/04/16 00:42:23;;;;;;;3.10;2.80;;;;;;;-3.19;84.94;93506.91;2107524;27;20430;-81
2021/04/16 00:43:26;;;;;;;3.30;2.55;;;;;;;-3.16;85.00;93514.88;2106263;28;21001;-84
2021/04/16 00:44:26;;;;;;;3.03;2.60;;;;;;;-3.19;84.84;93515.50;2110341;28;20136;-81
2021/04/16 00:45:30;;;;;;;2.78;2.58;;;;;;;-3.17;85.09;93508.09;2110143;28;20494;-81
2021/04/16 00:46:49;;;;;;;2.63;2.42;;;;;;;-3.23;85.29;93504.16;2098434;28;20023;-84
2021/04/16 00:47:52;;;;;;;3.00;2.80;;;;;;;-3.18;85.11;93503.97;2100326;28;20827;-82
2021/04/16 00:48:58;;;;;;;2.63;2.40;;;;;;;-3.18;85.00;93503.97;2097357;28;20515;-82
2021/04/16 00:50:07;;;;;;;4.68;3.15;;;;;;;-3.24;85.40;93507.84;2107767;28;20996;-82
2021/04/16 00:51:15;;;;;;;3.42;3.13;;;;;;;-3.25;85.27;93506.31;2099819;28;20447;-82
2021/04/16 00:52:27;;;;;;;3.03;2.72;;;;;;;-3.27;85.13;93500.66;2097856;28;20450;-83
2021/04/16 00:53:28;;;;;;;3.00;2.70;;;;;;;-3.27;84.88;93498.03;2092647;28;20458;-81
2021/04/16 00:54:33;;;;;;;2.63;2.42;;;;;;;-3.30;85.24;93503.88;2102011;28;20454;-83
2021/04/16 00:55:34;;;;;;;2.90;2.67;;;;;;;-3.30;nan;93504.66;2102909;28;20516;-83
2021/04/16 00:56:35;;;;;;;3.45;3.00;;;;;;;-3.31;84.94;93503.13;2106422;28;20453;-81
2021/04/16 00:57:35;;;;;;;2.70;2.50;;;;;;;-3.31;85.33;93503.13;2118304;27;20451;-82
2021/04/16 00:58:36;;;;;;;2.92;2.70;;;;;;;-3.34;85.79;93500.38;2101287;28;20111;-81
2021/04/16 00:59:51;;;;;;;3.03;2.72;;;;;;;-3.24;85.81;93494.78;2102114;28;20024;-81
2021/04/16 01:00:54;;;;;;;4.72;2.90;;;;;;;-3.28;85.07;93496.50;2115380;27;20395;-81
2021/04/16 01:01:56;;;;;;;2.80;2.60;;;;;;;-3.39;85.51;93487.50;2098746;28;20498;-81
2021/04/16 01:03:00;;;;;;;3.45;3.15;;;;;;;-3.40;85.29;93497.19;2106415;27;20430;-81
2021/04/16 01:04:00;;;;;;;3.38;2.85;;;;;;;-3.36;85.43;93492.09;2106105;28;20458;-82
2021/04/16 01:05:01;;;;;;;3.00;2.80;;;;;;;-3.36;84.49;93485.03;2123275;27;20968;-81
2021/04/16 01:06:06;;;;;;;2.90;2.50;;;;;;;-3.41;85.82;93489.69;2114913;28;20456;-83
2021/04/16 01:07:08;;;;;;;3.05;2.75;;;;;;;-3.41;85.90;93490.44;2105920;28;20052;-82
2021/04/16 01:08:09;;;;;;;2.88;2.63;;;;;;;-3.50;85.17;93486.38;2099284;28;20776;-84
2021/04/16 01:09:10;;;;;;;2.70;2.50;;;;;;;-3.51;85.41;93488.22;2099141;28;21260;-83
2021/04/16 01:10:13;;;;;;;2.83;2.63;;;;;;;-3.45;85.37;93488.78;2106208;28;20453;-84
2021/04/16 01:11:13;;;;;;;2.95;2.75;;;;;;;-3.42;85.86;93488.94;2106696;28;20438;-81
2021/04/16 01:12:14;;;;;;;2.92;2.67;;;;;;;-3.42;85.91;93488.16;2104349;28;20768;-82
2021/04/16 01:13:14;;;;;;;2.90;2.70;;;;;;;-3.39;86.88;93490.13;2104031;28;20019;-82
2021/04/16 01:14:17;;;;;;;3.22;3.00;;;;;;;-3.48;86.13;93481.56;2095937;28;20071;-84
2021/04/16 01:15:36;;;;;;;2.85;2.58;;;;;;;-3.56;85.69;93485.78;2106437;28;20040;-84
2021/04/16 01:16:38;;;;;;;2.90;2.70;;;;;;;-3.53;85.84;93481.78;2100292;28;20450;-82
2021/04/16 01:17:38;;;;;;;2.90;2.70;;;;;;;-3.50;85.96;93479.28;2106134;28;20026;-81
2021/04/16 01:18:42;;;;;;;2.85;2.65;;;;;;;-3.45;85.98;93489.56;2097910;28;20493;-83
2021/04/16 01:19:55;;;;;;;3.42;2.70;;;;;;;-3.41;85.66;93489.69;2095717;28;20103;-83
2021/04/16 01:20:59;;;;;;;3.05;2.75;;;;;;;-3.43;85.51;93491.84;2107528;28;20439;-83
2021/04/16 01:22:32;;;;;;;2.83;2.63;;;;;;;-3.41;85.05;93489.69;2114912;28;20457;-82
2021/04/16 01:23:57;;;;;;;2.95;2.75;;;;;;;-3.43;85.11;93484.00;2110694;28;20456;-84
2021/04/16 01:24:58;;;;;;;2.78;2.55;;;;;;;-3.42;85.28;93473.25;2101130;28;20489;-84
2021/04/16 01:26:00;;;;;;;3.45;3.10;;;;;;;-3.47;85.44;93478.63;2097915;28;20429;-82
2021/04/16 01:27:10;;;;;;;3.10;2.53;;;;;;;-3.34;85.01;93479.47;2106077;28;20445;-81
2021/04/16 01:28:11;;;;;;;2.97;2.78;;;;;;;-3.43;85.30;93476.16;2106236;28;20477;-82
2021/04/16 01:29:11;;;;;;;3.40;3.10;;;;;;;-3.46;85.26;93479.44;2097697;28;20431;-81
2021/04/16 01:30:18;;;;;;;2.70;2.50;;;;;;;-3.47;85.43;93476.03;2114805;28;20023;-84
2021/04/16 01:31:22;;;;;;;3.17;2.88;;;;;;;-3.46;86.16;93474.97;2106193;28;20036;-82
2021/04/16 01:32:31;;;;;;;3.10;2.70;;;;;;;-3.41;86.09;93485.22;2098809;28;20676;-84
2021/04/16 01:33:33;;;;;;;3.22;2.60;;;;;;;-3.44;86.43;93474.63;2103384;28;20457;-82
2021/04/16 01:34:34;;;;;;;3.08;2.88;;;;;;;-3.44;86.23;93480.63;2106185;28;20452;-81
2021/04/16 01:35:35;;;;;;;3.25;2.95;;;;;;;-3.44;86.71;93474.63;2102457;28;20545;-82
2021/04/16 01:36:36;;;;;;;3.20;2.90;;;;;;;-3.41;86.46;93482.63;2106229;28;20024;-84
2021/04/16 01:37:37;;;;;;;2.80;2.47;;;;;;;-3.52;85.82;93475.47;2097537;28;20431;-84
2021/04/16 01:38:39;;;;;;;3.20;2.90;;;;;;;-3.50;86.54;93473.31;2097695;28;20024;-82
2021/04/16 01:39:39;;;;;;;3.08;2.83;;;;;;;-3.44;86.02;93475.41;2089763;28;20031;-83
2021/04/16 01:40:40;;;;;;;2.83;2.63;;;;;;;-3.43;85.62;93476.16;2097776;28;20434;-83
2021/04/16 01:41:40;;;;;;;4.68;2.90;;;;;;;-3.47;85.75;93468.19;2097436;28;20027;-82
2021/04/16 01:42:41;;;;;;;4.15;2.88;;;;;;;-3.52;86.03;93467.63;2094872;28;20048;-81
2021/04/16 01:43:45;;;;;;;3.20;2.83;;;;;;;-3.46;87.20;93474.22;2093494;28;20549;-82
2021/04/16 01:44:46;;;;;;;3.17;2.88;;;;;;;-3.51;86.54;93472.53;2104659;27;20028;-83
2021/04/16 01:45:47;;;;;;;3.75;3.05;;;;;;;-3.52;86.50;93473.59;2105887;28;20450;-84
2021/04/16 01:46:51;;;;;;;3.45;3.15;;;;;;;-3.51;87.38;93471.75;2097445;28;20447;-81
2021/04/16 01:47:56;;;;;;;3.53;2.67;;;;;;;-3.59;86.36;93470.75;2099402;28;20447;-84
2021/04/16 01:48:59;;;;;;;3.13;2.90;;;;;;;-3.55;86.12;93471.66;2098227;28;20466;-82
2021/04/16 01:50:00;;;;;;;3.13;2.92;;;;;;;-3.55;86.13;93466.44;2090078;28;20445;-82
2021/04/16 01:51:00;;;;;;;2.90;2.70;;;;;;;-3.52;86.41;93460.53;2105969;28;20803;-81
2021/04/16 01:52:01;;;;;;;3.15;2.95;;;;;;;-3.51;86.28;93464.72;2118424;27;20015;-85
2021/04/16 01:53:03;;;;;;;3.15;2.95;;;;;;;-3.57;85.81;93466.72;2106004;28;20024;-81
2021/04/16 01:54:18;;;;;;;2.88;2.67;;;;;;;-3.60;85.58;93462.16;2105941;28;20446;-83
2021/04/16 01:55:20;;;;;;;3.22;2.92;;;;;;;-3.59;85.61;93455.09;2116456;27;20512;-81
2021/04/16 01:56:21;;;;;;;3.55;3.08;;;;;;;-3.64;85.41;93455.28;2120050;27;20440;-81
2021/04/16 01:57:25;;;;;;;3.15;2.88;;;;;;;-3.65;85.84;93462.31;2100320;28;20454;-83
2021/04/16 01:58:26;;;;;;;3.30;3.00;;;;;;;-3.68;86.08;93467.44;2106970;27;20455;-83
2021/04/16 01:59:29;;;;;;;3.28;2.60;;;;;;;-3.63;86.80;93462.78;2110544;28;20449;-82
2021/04/16 02:00:36;;;;;;;3.08;2.80;;;;;;;-3.58;86.59;93462.59;2098474;28;20443;-84
2021/04/16 02:01:37;;;;;;;4.55;3.03;;;;;;;-3.59;86.12;93461.06;2107490;28;20442;-82
2021/04/16 02:04:36;;;;;;;2.83;2.63;;;;;;;-3.63;85.96;93457.56;2148031;27;20116;-80
2021/04/16 02:05:36;;;;;;;3.28;2.92;;;;;;;-3.61;85.38;93465.81;2121624;28;20475;-81
2021/04/16 02:06:37;;;;;;;3.38;3.00;;;;;;;-3.61;85.71;93454.63;2104351;28;20446;-80
2021/04/16 02:07:38;;;;;;;3.38;3.08;;;;;;;-3.60;86.63;93456.13;2099510;28;20029;-82
2021/04/16 02:08:38;;;;;;;4.45;3.28;;;;;;;-3.63;87.11;93462.78;2101513;28;20036;-82
2021/04/16 02:09:39;;;;;;;2.83;2.63;;;;;;;-3.60;86.09;93458.75;2104618;28;20123;-82
2021/04/16 02:10:41;;;;;;;3.00;2.80;;;;;;;-3.59;86.71;93457.69;2104819;28;20020;-80
2021/04/16 02:11:43;;;;;;;3.28;2.97;;;;;;;-3.62;86.53;93458.31;2104757;28;20891;-80
2021/04/16 02:12:44;;;;;;;4.63;3.00;;;;;;;-3.59;86.84;93448.00;2104826;28;20465;-80
2021/04/16 02:13:44;;;;;;;3.80;2.80;;;;;;;-3.53;86.21;93450.41;2104523;28;20469;-80
2021/04/16 02:14:45;;;;;;;3.55;3.25;;;;;;;-3.46;87.15;93459.28;2104621;28;20024;-81
2021/04/16 02:15:46;;;;;;;2.92;2.72;;;;;;;-3.43;84.98;93458.63;2104459;28;20579;-82
2021/04/16 02:16:49;;;;;;;3.28;3.00;;;;;;;-3.46;84.95;93456.69;2103849;28;20036;-83
2021/04/16 02:17:49;;;;;;;3.28;2.88;;;;;;;-3.46;85.54;93448.84;2104515;28;20450;-79
2021/04/16 02:18:54;;;;;;;3.03;2.65;;;;;;;-3.48;85.27;93453.59;2111384;28;20489;-83
2021/04/16 02:19:56;;;;;;;2.83;2.63;;;;;;;-3.51;85.14;93454.25;2105011;28;20036;-81
2021/04/16 02:20:56;;;;;;;3.55;3.25;;;;;;;-3.49;86.02;93451.31;2120865;27;20518;-79
2021/04/16 02:21:57;;;;;;;3.47;3.15;;;;;;;-3.53;85.90;93447.81;2129918;27;20412;-82
2021/04/16 02:22:58;;;;;;;3.42;3.13;;;;;;;-3.50;86.58;93444.56;2128601;27;20117;-82
2021/04/16 02:23:58;;;;;;;3.00;2.75;;;;;;;-3.48;86.26;93447.63;2120089;28;20027;-82
2021/04/16 02:24:59;;;;;;;3.05;2.75;;;;;;;-3.50;85.83;93444.56;2120382;28;20074;-80
2021/04/16 02:25:59;;;;;;;2.95;2.75;;;;;;;-3.41;85.96;93453.88;2111903;28;20031;-80
2021/04/16 02:27:00;;;;;;;2.95;2.67;;;;;;;-3.38;85.66;93452.44;2103020;28;20464;-81
2021/04/16 02:28:00;;;;;;;3.80;3.30;;;;;;;-3.39;85.32;93443.09;2103555;28;20087;-80
2021/04/16 02:29:06;;;;;;;2.90;2.65;;;;;;;-3.41;84.60;93437.44;2111323;28;20459;-80
2021/04/16 02:30:10;;;;;;;2.97;2.70;;;;;;;-3.44;85.21;93449.28;2116725;28;20079;-82
2021/04/16 02:31:10;;;;;;;3.08;2.63;;;;;;;-3.42;85.66;93438.53;2104776;28;20488;-82
2021/04/16 02:32:12;;;;;;;3.55;2.83;;;;;;;-3.45;85.38;93452.97;2112771;28;20534;-80
2021/04/16 02:33:12;;;;;;;2.70;2.50;;;;;;;-3.44;85.41;93449.28;2104740;28;20074;-82
2021/04/16 02:34:24;;;;;;;2.70;2.50;;;;;;;-3.45;85.93;93452.22;2104470;28;20450;-80
2021/04/16 02:35:25;;;;;;;3.00;2.75;;;;;;;-3.45;86.09;93441.75;2107247;28;20024;-82
2021/04/16 02:36:26;;;;;;;3.10;2.88;;;;;;;-3.44;85.58;93438.06;2105260;28;21008;-82
2021/04/16 02:37:26;;;;;;;3.58;2.72;;;;;;;-3.36;84.94;93443.22;2112834;28;20453;-80
2021/04/16 02:38:27;;;;;;;2.92;2.72;;;;;;;-3.35;85.42;93446.59;2121457;28;20031;-79
2021/04/16 02:39:28;;;;;;;3.10;2.65;;;;;;;-3.40;84.78;93442.31;2104469;28;20101;-79
2021/04/16 02:40:28;;;;;;;3.22;3.00;;;;;;;-3.35;84.64;93438.75;2104470;28;20511;-81
2021/04/16 02:41:29;;;;;;;2.95;2.75;;;;;;;-3.32;85.13;93438.13;2112751;28;20020;-80
2021/04/16 02:42:29;;;;;;;3.28;3.08;;;;;;;-3.39;85.08;93441.22;2112618;28;20446;-81
2021/04/16 02:43:30;;;;;;;2.70;2.50;;;;;;;-3.46;84.55;93446.22;2121321;28;20032;-80
2021/04/16 02:44:31;;;;;;;2.80;2.60;;;;;;;-3.52;85.49;93442.25;2112742;28;20538;-81
2021/04/16 02:45:32;;;;;;;2.78;2.58;;;;;;;-3.51;85.39;93443.81;2112980;28;20889;-83
2021/04/16 02:46:33;;;;;;;3.33;3.05;;;;;;;-3.47;85.11;93441.28;2117105;28;20461;-80
2021/04/16 02:47:34;;;;;;;2.63;2.42;;;;;;;-3.49;85.40;93440.88;2112712;28;20653;-79
2021/04/16 02:48:34;;;;;;;2.90;2.70;;;;;;;-3.49;85.44;93431.19;2112426;28;20540;-80
2021/04/16 02:49:35;;;;;;;3.00;2.70;;;;;;;-3.49;85.42;93431.19;2108799;28;20088;-80
2021/04/16 02:50:35;;;;;;;2.65;2.53;;;;;;;-3.46;85.93;93442.84;2096015;28;20028;-79
2021/04/16 02:51:36;;;;;;;2.60;2.40;;;;;;;-3.40;85.66;93442.31;2096004;28;20123;-81
2021/04/16 02:52:36;;;;;;;2.90;2.70;;;;;;;-3.38;84.74;93444.59;2104939;28;20036;-81
2021/04/16 02:53:37;;;;;;;4.93;2.58;;;;;;;-3.42;85.67;93448.97;2112549;28;20024;-79
2021/04/16 02:54:37;;;;;;;3.00;2.80;;;;;;;-3.43;85.96;93440.34;2103864;28;20107;-80
2021/04/16 02:55:38;;;;;;;3.25;2.65;;;;;;;-3.48;85.57;93437.16;2095920;28;20032;-79
2021/04/16 02:56:38;;;;;;;2.72;2.53;;;;;;;-3.50;85.21;93440.09;2099906;28;20029;-82
2021/04/16 02:57:39;;;;;;;3.33;2.58;;;;;;;-3.51;85.19;93443.03;2104906;28;20031;-81
2021/04/16 02:58:39;;;;;;;2.70;2.50;;;;;;;-3.48;85.83;93445.00;2108447;28;20058;-81
2021/04/16 02:59:40;;;;;;;2.60;2.40;;;;;;;-3.51;85.42;93443.03;2103966;28;20492;-82
2021/04/16 03:00:40;;;;;;;3.08;2.40;;;;;;;-3.45;86.33;93433.91;2112609;28;20055;-79
2021/04/16 03:01:41;;;;;;;3.28;2.67;;;;;;;-3.48;85.55;93445.00;2104092;28;20094;-80
2021/04/16 03:02:42;;;;;;;3.10;2.90;;;;;;;-3.47;85.14;93442.06;2104174;28;20040;-80
2021/04/16 03:03:43;;;;;;;2.90;2.58;;;;;;;-3.42;84.72;93435.91;2102950;28;20025;-80
2021/04/16 03:04:43;;;;;;;2.83;2.40;;;;;;;-3.40;85.28;93441.56;2092468;28;20135;-79
2021/04/16 03:05:44;;;;;;;2.92;2.70;;;;;;;-3.38;85.26;93439.38;2104235;28;20117;-78
2021/04/16 03:06:45;;;;;;;2.63;2.42;;;;;;;-3.43;85.44;93437.72;2112918;28;20470;-81
2021/04/16 03:07:46;;;;;;;3.63;2.85;;;;;;;-3.43;84.83;93447.41;2097373;28;20554;-79
2021/04/16 03:08:58;;;;;;;2.47;2.28;;;;;;;-3.55;84.88;93441.06;2095984;28;20035;-81
2021/04/16 03:09:58;;;;;;;3.40;2.58;;;;;;;-3.59;85.36;93440.16;2105721;28;20127;-79
2021/04/16 03:11:00;;;;;;;3.50;2.67;;;;;;;-3.57;85.31;93443.22;2095837;28;20455;-81
2021/04/16 03:12:02;;;;;;;3.50;2.60;;;;;;;-3.49;84.89;93441.63;2103982;28;20052;-80
2021/04/16 03:13:03;;;;;;;3.00;2.70;;;;;;;-3.46;85.21;93435.00;2104674;28;21017;-79
2021/04/16 03:14:04;;;;;;;3.65;2.50;;;;;;;-3.42;84.71;93436.66;2112499;28;20457;-81
2021/04/16 03:15:09;;;;;;;2.97;2.67;;;;;;;-3.47;85.21;93444.66;2112345;28;20385;-80
2021/04/16 03:16:09;;;;;;;2.50;2.30;;;;;;;-3.52;85.32;93437.03;2098713;28;20962;-79
2021/04/16 03:17:11;;;;;;;3.17;2.28;;;;;;;-3.55;85.86;93442.91;2090399;28;20447;-82
2021/04/16 03:18:13;;;;;;;2.80;2.60;;;;;;;-3.54;85.38;93439.22;2098545;28;20431;-79
2021/04/16 03:19:14;;;;;;;2.80;2.50;;;;;;;-3.58;85.75;93436.47;2090549;28;20028;-80
2021/04/16 03:20:17;;;;;;;2.67;2.47;;;;;;;-3.60;85.56;93438.66;2091938;28;20450;-81
2021/04/16 03:21:18;;;;;;;3.10;2.90;;;;;;;-3.56;85.64;93436.94;2098882;28;20031;-81
2021/04/16 03:22:18;;;;;;;3.17;2.97;;;;;;;-3.57;86.24;93434.63;2090139;28;20513;-81
2021/04/16 03:23:19;;;;;;;3.55;2.40;;;;;;;-3.67;86.18;93435.75;2107055;28;20032;-83
2021/04/16 03:24:19;;;;;;;2.38;2.17;;;;;;;-3.62;85.96;93434.81;2106668;28;20510;-81
2021/04/16 03:25:20;;;;;;;2.67;2.47;;;;;;;-3.67;85.30;93438.38;2090255;28;20024;-79
2021/04/16 03:26:23;;;;;;;2.88;2.53;;;;;;;-3.60;86.66;93435.25;2098786;28;20039;-80
2021/04/16 03:27:23;;;;;;;2.72;2.53;;;;;;;-3.52;87.20;93426.59;2090091;28;20470;-79
2021/04/16 03:28:24;;;;;;;2.30;2.20;;;;;;;-3.62;86.30;93432.97;2090455;28;20999;-82
2021/04/16 03:29:26;;;;;;;2.88;2.58;;;;;;;-3.60;85.44;93435.25;2098504;28;20133;-82
2021/04/16 03:30:28;;;;;;;3.00;2.80;;;;;;;-3.64;85.99;93431.75;2090369;28;20025;-79
2021/04/16 03:31:29;;;;;;;2.75;2.55;;;;;;;-3.68;85.66;93430.88;2094219;28;20547;-80
2021/04/16 03:32:30;;;;;;;2.67;2.47;;;;;;;-3.69;86.09;93432.69;2106772;28;20889;-79
2021/04/16 03:33:31;;;;;;;2.67;2.47;;;;;;;-3.71;85.85;93434.88;2106920;28;20453;-81
2021/04/16 03:34:32;;;;;;;2.90;2.70;;;;;;;-3.73;85.74;93421.38;2098916;28;20082;-80
2021/04/16 03:35:33;;;;;;;2.47;2.30;;;;;;;-3.69;86.11;93432.69;2098414;28;20981;-81
2021/04/16 03:36:34;;;;;;;2.75;2.50;;;;;;;-3.74;86.35;93430.28;2083159;28;20040;-80
2021/04/16 03:37:35;;;;;;;3.08;2.88;;;;;;;-3.73;86.57;93431.81;2089925;28;20478;-80
2021/04/16 03:38:36;;;;;;;2.50;2.30;;;;;;;-3.70;86.91;93430.41;2098659;28;20446;-80
2021/04/16 03:39:37;;;;;;;2.90;2.58;;;;;;;-3.68;86.92;93423.78;2103316;28;20063;-79
2021/04/16 03:40:38;;;;;;;3.00;2.70;;;;;;;-3.65;86.46;93428.38;2102602;28;20128;-81
2021/04/16 03:41:38;;;;;;;2.83;2.63;;;;;;;-3.66;86.43;93429.44;2106907;28;20476;-80
2021/04/16 03:42:39;;;;;;;3.08;2.55;;;;;;;-3.73;86.57;93423.19;2115382;28;20425;-82
2021/04/16 03:43:42;;;;;;;2.60;2.40;;;;;;;-3.74;85.56;93425.06;2098355;28;20032;-81
2021/04/16 03:44:43;;;;;;;3.25;2.70;;;;;;;-3.80;85.48;93421.09;2090882;28;20712;-81
2021/04/16 03:45:43;;;;;;;4.00;2.40;;;;;;;-3.77;87.05;93424.94;2098566;28;20482;-80
2021/04/16 03:46:44;;;;;;;2.63;2.42;;;;;;;-3.71;86.40;93426.28;2089970;28;20409;-81
2021/04/16 03:47:46;;;;;;;2.92;2.72;;;;;;;-3.78;86.17;93415.56;2099948;28;20028;-82
2021/04/16 03:48:47;;;;;;;2.95;2.67;;;;;;;-3.80;85.90;93416.66;2115201;28;20057;-80
2021/04/16 03:49:47;;;;;;;3.15;2.70;;;;;;;-3.77;86.15;93417.88;2115271;28;20571;-80
2021/04/16 03:50:48;;;;;;;2.60;2.40;;;;;;;-3.77;86.22;93423.09;2113185;28;20054;-82
2021/04/16 03:51:59;;;;;;;2.70;2.50;;;;;;;-3.77;85.94;93425.72;2114749;28;20023;-82
2021/04/16 03:53:06;;;;;;;2.42;2.25;;;;;;;-3.86;86.01;93419.78;2098478;28;20448;-80
2021/04/16 03:54:07;;;;;;;3.00;2.80;;;;;;;-3.77;85.87;93422.34;2092066;28;20538;-81
2021/04/16 03:55:09;;;;;;;3.10;2.80;;;;;;;-3.78;86.74;93424.16;2098402;28;20585;-79
2021/04/16 03:56:12;;;;;;;3.08;2.88;;;;;;;-3.87;86.04;93413.00;2082466;28;20025;-81
2021/04/16 03:57:13;;;;;;;3.08;2.85;;;;;;;-3.88;86.39;93414.09;2098751;28;20462;-81
2021/04/16 03:58:14;;;;;;;3.42;2.65;;;;;;;-3.90;86.76;93421.50;2098299;28;21053;-79
2021/04/16 03:59:15;;;;;;;3.08;2.65;;;;;;;-3.89;86.90;93423.00;2089947;28;20439;-80
2021/04/16 04:00:26;;;;;;;3.75;2.80;;;;;;;-3.85;87.44;93426.53;2090023;28;20028;-82
2021/04/16 04:01:30;;;;;;;2.60;2.40;;;;;;;-3.85;86.85;93434.34;2092656;28;20483;-81
2021/04/16 04:02:31;;;;;;;3.70;2.60;;;;;;;-3.87;86.98;93432.03;2090670;28;20447;-82
2021/04/16 04:03:32;;;;;;;2.55;2.33;;;;;;;-3.80;86.90;93431.56;2098320;28;20439;-81
2021/04/16 04:04:32;;;;;;;2.92;2.60;;;;;;;-3.84;86.21;93428.81;2099728;28;20025;-79
2021/04/16 04:05:34;;;;;;;2.80;2.60;;;;;;;-3.78;86.83;93432.00;2106591;28;20507;-82
2021/04/16 04:06:34;;;;;;;3.20;2.90;;;;;;;-3.91;86.68;93431.16;2089967;28;20036;-81
2021/04/16 04:07:35;;;;;;;3.15;2.85;;;;;;;-3.96;87.23;93428.72;2089555;28;20444;-81
2021/04/16 04:08:36;;;;;;;2.47;2.30;;;;;;;-3.93;86.77;93435.16;2098197;28;20032;-79
2021/04/16 04:09:37;;;;;;;3.40;2.53;;;;;;;-3.95;86.44;93426.88;2093294;28;20029;-80
2021/04/16 04:10:38;;;;;;;2.63;2.42;;;;;;;-3.92;87.50;93429.63;2094977;28;20032;-79
2021/04/16 04:11:39;;;;;;;2.97;2.70;;;;;;;-3.91;87.70;93435.59;2090187;28;21025;-81
2021/04/16 04:12:40;;;;;;;2.85;2.60;;;;;;;-3.98;87.01;93432.75;2089178;28;20897;-80
2021/04/16 04:13:41;;;;;;;3.42;2.92;;;;;;;-4.00;86.96;93433.03;2095033;28;20450;-80
2021/04/16 04:14:42;;;;;;;3.85;2.92;;;;;;;-3.97;87.21;93431.66;2097966;28;20036;-82
2021/04/16 04:15:43;;;;;;;2.80;2.60;;;;;;;-3.92;87.46;93434.09;2097981;28;20032;-81
2021/04/16 04:16:54;;;;;;;4.05;2.50;;;;;;;-3.98;86.61;93435.34;2089903;28;20539;-79
2021/04/16 04:17:57;;;;;;;2.90;2.70;;;;;;;-4.03;86.69;93425.88;2090562;28;20033;-80
2021/04/16 04:18:59;;;;;;;3.10;2.90;;;;;;;-4.14;87.01;93430.66;2081899;28;21282;-79
2021/04/16 04:20:00;;;;;;;2.95;2.75;;;;;;;-4.11;87.88;93431.91;2089448;28;20455;-78
2021/04/16 04:21:01;;;;;;;2.80;2.60;;;;;;;-4.11;87.74;93434.50;2097608;28;20450;-80
2021/04/16 04:22:04;;;;;;;2.80;2.60;;;;;;;-4.08;87.96;93429.44;2089012;28;20444;-79
2021/04/16 04:23:06;;;;;;;2.90;2.70;;;;;;;-4.10;86.98;93428.97;2073317;28;20132;-79
2021/04/16 04:24:07;;;;;;;3.83;2.75;;;;;;;-4.07;87.90;93430.94;2089798;28;20858;-81
2021/04/16 04:25:11;;;;;;;4.47;2.80;;;;;;;-4.15;87.56;93434.38;2096914;28;20489;-81
2021/04/16 04:26:11;;;;;;;3.20;2.95;;;;;;;-4.13;87.39;93437.41;2081682;28;20471;-80
2021/04/16 04:27:14;;;;;;;2.85;2.65;;;;;;;-4.09;87.26;93427.09;2097257;28;20430;-78
2021/04/16 04:28:15;;;;;;;3.10;2.90;;;;;;;-4.09;87.39;93429.72;2099103;28;20806;-81
2021/04/16 04:29:21;;;;;;;3.80;2.78;;;;;;;-4.10;87.11;93434.19;2089552;28;20435;-80
2021/04/16 04:30:25;;;;;;;3.33;3.00;;;;;;;-4.10;87.58;93433.41;2090529;28;20032;-79
2021/04/16 04:31:26;;;;;;;2.83;2.63;;;;;;;-4.09;88.11;93437.56;2097779;28;20454;-80
2021/04/16 04:32:27;;;;;;;2.70;2.50;;;;;;;-4.10;87.93;93436.03;2097626;28;20446;-81
2021/04/16 04:33:27;;;;;;;3.60;2.60;;;;;;;-4.12;86.96;93433.75;2097832;28;20087;-81
2021/04/16 04:34:28;;;;;;;3.92;2.80;;;;;;;-4.00;87.64;93434.88;2097833;28;20503;-79
2021/04/16 04:35:29;;;;;;;3.30;2.75;;;;;;;-3.97;87.12;93436.88;2106023;28;20043;-81
2021/04/16 04:36:30;;;;;;;3.38;2.85;;;;;;;-4.05;87.14;93439.22;2106096;28;20110;-82
2021/04/16 04:37:32;;;;;;;3.20;3.00;;;;;;;-4.05;86.98;93435.84;2097768;28;20028;-80
2021/04/16 04:38:32;;;;;;;3.15;2.83;;;;;;;-4.07;87.61;93440.63;2098036;28;20023;-80
2021/04/16 04:39:40;;;;;;;3.63;2.72;;;;;;;-4.07;87.66;93436.16;2089413;28;20494;-81
2021/04/16 04:40:41;;;;;;;3.88;2.70;;;;;;;-4.09;87.32;93438.31;2091394;28;20041;-82
2021/04/16 04:41:45;;;;;;;3.25;2.92;;;;;;;-4.10;87.92;93434.19;2106363;28;21053;-80
2021/04/16 04:42:46;;;;;;;3.00;2.80;;;;;;;-4.06;88.05;93434.31;2097557;28;21053;-82
2021/04/16 04:43:48;;;;;;;3.55;2.75;;;;;;;-3.98;88.11;93443.19;2089225;28;20443;-79
2021/04/16 04:44:49;;;;;;;3.55;2.92;;;;;;;-4.02;87.41;93437.84;2081644;28;20021;-80
2021/04/16 04:45:49;;;;;;;3.28;3.03;;;;;;;-4.00;86.82;93446.09;2088473;28;20782;-81
2021/04/16 04:46:50;;;;;;;2.97;2.78;;;;;;;-4.07;86.88;93443.25;2090098;28;20063;-80
2021/04/16 04:47:52;;;;;;;3.08;2.85;;;;;;;-4.08;86.72;93436.50;2089423;28;20039;-81
2021/04/16 04:48:57;;;;;;;3.00;2.80;;;;;;;-4.02;88.03;93440.44;2097626;28;20799;-80
2021/04/16 04:50:00;;;;;;;3.17;2.90;;;;;;;-3.97;87.30;93439.50;2106212;28;20985;-81
2021/04/16 04:51:00;;;;;;;3.17;2.88;;;;;;;-4.01;87.86;93443.81;2097746;28;20427;-82
2021/04/16 04:52:19;;;;;;;3.00;2.80;;;;;;;-4.03;87.03;93438.16;2097045;28;20511;-81
2021/04/16 04:53:20;;;;;;;3.05;2.85;;;;;;;-4.13;87.48;93434.03;2100514;28;20030;-81
2021/04/16 04:54:21;;;;;;;3.45;2.83;;;;;;;-4.08;87.91;93439.88;2097543;28;20415;-80
2021/04/16 04:55:27;;;;;;;2.92;2.65;;;;;;;-4.11;87.63;93444.94;2100577;28;20067;-81